sensor_id;sensor_type;location;lat;lon;timestamp;temperature;humidity
21823;DHT22;11074;48.596;9.238;2023-03-01T00:01:00;1.80;99.90
21823;DHT22;11074;48.596;9.238;2023-03-01T00:03:33;1.90;99.90
21823;DHT22;11074;48.596;9.238;2023-03-01T00:06:00;1.80;99.90
21823;DHT22;11074;48.596;9.238;2023-03-01T00:08:26;1.80;99.90
21823;DHT22;11074;48.596;9.238;2023-03-01T00:11:06;1.80;99.90
21823;DHT22;11074;48.596;9.238;2023-03-01T00:13:45;1.70;99.90
21823;DHT22;11074;48.596;9.238;2023-03-01T00:16:15;1.60;99.90
21823;DHT22;11074;48.596;9.238;2023-03-01T00:18:43;1.60;99.90
21823;DHT22;11074;48.596;9.238;2023-03-01T00:21:09;1.50;99.90
21823;DHT22;11074;48.596;9.238;2023-03-01T00:23:36;1.40;99.90
21823;DHT22;11074;48.596;9.238;2023-03-01T00:26:05;1.40;99.90
21823;DHT22;11074;48.596;9.238;2023-03-01T00:28:32;1.40;99.90
21823;DHT22;11074;48.596;9.238;2023-03-01T00:31:12;1.40;99.90
21823;DHT22;11074;48.596;9.238;2023-03-01T00:33:43;1.40;99.90
21823;DHT22;11074;48.596;9.238;2023-03-01T00:36:11;1.50;99.90
21823;DHT22;11074;48.596;9.238;2023-03-01T00:38:40;1.50;99.90
21823;DHT22;11074;48.596;9.238;2023-03-01T00:41:10;1.50;99.90
21823;DHT22;11074;48.596;9.238;2023-03-01T00:43:37;1.50;99.90
21823;DHT22;11074;48.596;9.238;2023-03-01T00:46:09;1.40;99.90
21823;DHT22;11074;48.596;9.238;2023-03-01T00:48:40;1.40;99.90
21823;DHT22;11074;48.596;9.238;2023-03-01T00:53:53;1.40;99.90
21823;DHT22;11074;48.596;9.238;2023-03-01T00:56:21;1.40;99.90
21823;DHT22;11074;48.596;9.238;2023-03-01T00:58:48;1.30;99.90
21823;DHT22;11074;48.596;9.238;2023-03-01T01:01:20;1.30;99.90
21823;DHT22;11074;48.596;9.238;2023-03-01T01:03:48;1.30;99.90
21823;DHT22;11074;48.596;9.238;2023-03-01T01:06:27;1.30;99.90
21823;DHT22;11074;48.596;9.238;2023-03-01T01:08:55;1.30;99.90
21823;DHT22;11074;48.596;9.238;2023-03-01T01:11:23;1.30;99.90
21823;DHT22;11074;48.596;9.238;2023-03-01T01:13:51;1.30;99.90
21823;DHT22;11074;48.596;9.238;2023-03-01T01:16:18;1.30;99.90
21823;DHT22;11074;48.596;9.238;2023-03-01T01:18:45;1.20;99.90
21823;DHT22;11074;48.596;9.238;2023-03-01T01:21:14;1.20;99.90
21823;DHT22;11074;48.596;9.238;2023-03-01T01:23:42;1.20;99.90
21823;DHT22;11074;48.596;9.238;2023-03-01T01:26:15;1.20;99.90
21823;DHT22;11074;48.596;9.238;2023-03-01T01:28:44;1.20;99.90
21823;DHT22;11074;48.596;9.238;2023-03-01T01:31:11;1.20;99.90
21823;DHT22;11074;48.596;9.238;2023-03-01T01:33:37;1.20;99.90
21823;DHT22;11074;48.596;9.238;2023-03-01T01:36:06;1.20;99.90
21823;DHT22;11074;48.596;9.238;2023-03-01T01:38:33;1.20;99.90
21823;DHT22;11074;48.596;9.238;2023-03-01T01:40:59;1.30;99.90
21823;DHT22;11074;48.596;9.238;2023-03-01T01:43:32;1.20;99.90
21823;DHT22;11074;48.596;9.238;2023-03-01T01:46:15;1.30;99.90
21823;DHT22;11074;48.596;9.238;2023-03-01T01:49:11;1.30;99.90
21823;DHT22;11074;48.596;9.238;2023-03-01T01:51:45;1.30;99.90
21823;DHT22;11074;48.596;9.238;2023-03-01T01:54:42;1.30;99.90
21823;DHT22;11074;48.596;9.238;2023-03-01T01:57:15;1.40;99.90
21823;DHT22;11074;48.596;9.238;2023-03-01T01:59:50;1.40;99.90
21823;DHT22;11074;48.596;9.238;2023-03-01T02:02:19;1.30;99.90
21823;DHT22;11074;48.596;9.238;2023-03-01T02:04:47;1.20;99.90
21823;DHT22;11074;48.596;9.238;2023-03-01T02:07:20;1.20;99.90
21823;DHT22;11074;48.596;9.238;2023-03-01T02:09:51;1.20;99.90
21823;DHT22;11074;48.596;9.238;2023-03-01T02:12:20;1.40;99.90
21823;DHT22;11074;48.596;9.238;2023-03-01T02:14:48;1.40;99.90
21823;DHT22;11074;48.596;9.238;2023-03-01T02:17:16;1.50;99.90
21823;DHT22;11074;48.596;9.238;2023-03-01T02:19:53;1.50;99.90
21823;DHT22;11074;48.596;9.238;2023-03-01T02:22:37;1.50;99.90
21823;DHT22;11074;48.596;9.238;2023-03-01T02:30:47;1.50;99.90
21823;DHT22;11074;48.596;9.238;2023-03-01T02:33:35;1.50;99.90
21823;DHT22;11074;48.596;9.238;2023-03-01T02:36:21;1.40;99.90
21823;DHT22;11074;48.596;9.238;2023-03-01T02:38:52;1.40;99.90
21823;DHT22;11074;48.596;9.238;2023-03-01T02:41:21;1.40;99.90
21823;DHT22;11074;48.596;9.238;2023-03-01T02:43:50;1.40;99.90
21823;DHT22;11074;48.596;9.238;2023-03-01T02:46:23;1.40;99.90
21823;DHT22;11074;48.596;9.238;2023-03-01T02:48:53;1.40;99.90
21823;DHT22;11074;48.596;9.238;2023-03-01T02:51:46;1.50;99.90
21823;DHT22;11074;48.596;9.238;2023-03-01T02:57:22;1.60;99.90
21823;DHT22;11074;48.596;9.238;2023-03-01T02:59:50;1.50;99.90
21823;DHT22;11074;48.596;9.238;2023-03-01T03:02:26;1.50;99.90
21823;DHT22;11074;48.596;9.238;2023-03-01T03:08:02;1.60;99.90
21823;DHT22;11074;48.596;9.238;2023-03-01T03:10:31;1.60;99.90
21823;DHT22;11074;48.596;9.238;2023-03-01T03:13:03;1.60;99.90
21823;DHT22;11074;48.596;9.238;2023-03-01T03:15:37;1.60;99.90
21823;DHT22;11074;48.596;9.238;2023-03-01T03:18:07;1.70;99.90
21823;DHT22;11074;48.596;9.238;2023-03-01T03:20:35;1.70;99.90
21823;DHT22;11074;48.596;9.238;2023-03-01T03:23:02;1.70;99.90
21823;DHT22;11074;48.596;9.238;2023-03-01T03:25:28;1.70;99.90
21823;DHT22;11074;48.596;9.238;2023-03-01T03:27:55;1.70;99.90
21823;DHT22;11074;48.596;9.238;2023-03-01T03:30:23;1.70;99.90
21823;DHT22;11074;48.596;9.238;2023-03-01T03:32:54;1.70;99.90
21823;DHT22;11074;48.596;9.238;2023-03-01T03:35:39;1.70;99.90
21823;DHT22;11074;48.596;9.238;2023-03-01T03:38:10;1.70;99.90
21823;DHT22;11074;48.596;9.238;2023-03-01T03:40:49;1.70;99.90
21823;DHT22;11074;48.596;9.238;2023-03-01T03:43:19;1.70;99.90
21823;DHT22;11074;48.596;9.238;2023-03-01T03:45:49;1.60;99.90
21823;DHT22;11074;48.596;9.238;2023-03-01T03:48:16;1.60;99.90
21823;DHT22;11074;48.596;9.238;2023-03-01T03:50:54;1.60;99.90
21823;DHT22;11074;48.596;9.238;2023-03-01T03:53:23;1.70;99.90
21823;DHT22;11074;48.596;9.238;2023-03-01T03:55:50;1.60;99.90
21823;DHT22;11074;48.596;9.238;2023-03-01T03:58:18;1.70;99.90
21823;DHT22;11074;48.596;9.238;2023-03-01T04:00:50;1.70;99.90
21823;DHT22;11074;48.596;9.238;2023-03-01T04:03:18;1.70;99.90
21823;DHT22;11074;48.596;9.238;2023-03-01T04:05:46;1.70;99.90
21823;DHT22;11074;48.596;9.238;2023-03-01T04:08:12;1.70;99.90
21823;DHT22;11074;48.596;9.238;2023-03-01T04:10:44;1.70;99.90
21823;DHT22;11074;48.596;9.238;2023-03-01T04:13:12;1.70;99.90
21823;DHT22;11074;48.596;9.238;2023-03-01T04:15:40;1.60;99.90
21823;DHT22;11074;48.596;9.238;2023-03-01T04:18:09;1.60;99.90
21823;DHT22;11074;48.596;9.238;2023-03-01T04:20:38;1.60;99.90
21823;DHT22;11074;48.596;9.238;2023-03-01T04:23:05;1.60;99.90
21823;DHT22;11074;48.596;9.238;2023-03-01T04:28:15;1.70;99.90
21823;DHT22;11074;48.596;9.238;2023-03-01T04:30:40;1.70;99.90
21823;DHT22;11074;48.596;9.238;2023-03-01T04:33:08;1.70;99.90
21823;DHT22;11074;48.596;9.238;2023-03-01T04:35:36;1.70;99.90
21823;DHT22;11074;48.596;9.238;2023-03-01T04:38:04;1.80;99.90
21823;DHT22;11074;48.596;9.238;2023-03-01T04:40:30;1.80;99.90
21823;DHT22;11074;48.596;9.238;2023-03-01T04:42:56;1.70;99.90
21823;DHT22;11074;48.596;9.238;2023-03-01T04:45:22;1.70;99.90
21823;DHT22;11074;48.596;9.238;2023-03-01T04:47:48;1.70;99.90
21823;DHT22;11074;48.596;9.238;2023-03-01T04:50:17;1.70;99.90
21823;DHT22;11074;48.596;9.238;2023-03-01T04:52:46;1.80;99.90
21823;DHT22;11074;48.596;9.238;2023-03-01T04:55:13;1.80;99.90
21823;DHT22;11074;48.596;9.238;2023-03-01T04:57:39;1.80;99.90
21823;DHT22;11074;48.596;9.238;2023-03-01T05:00:07;1.90;99.90
21823;DHT22;11074;48.596;9.238;2023-03-01T05:02:54;1.90;99.90
21823;DHT22;11074;48.596;9.238;2023-03-01T05:05:26;1.90;99.90
21823;DHT22;11074;48.596;9.238;2023-03-01T05:08:03;1.90;99.90
21823;DHT22;11074;48.596;9.238;2023-03-01T05:10:31;1.90;99.90
21823;DHT22;11074;48.596;9.238;2023-03-01T05:13:00;1.80;99.90
21823;DHT22;11074;48.596;9.238;2023-03-01T05:15:28;1.80;99.90
21823;DHT22;11074;48.596;9.238;2023-03-01T05:17:57;1.80;99.90
21823;DHT22;11074;48.596;9.238;2023-03-01T05:20:26;1.90;99.90
21823;DHT22;11074;48.596;9.238;2023-03-01T05:22:56;1.90;99.90
21823;DHT22;11074;48.596;9.238;2023-03-01T05:25:24;1.90;99.90
21823;DHT22;11074;48.596;9.238;2023-03-01T05:27:50;1.90;99.90
21823;DHT22;11074;48.596;9.238;2023-03-01T05:30:17;1.90;99.90
21823;DHT22;11074;48.596;9.238;2023-03-01T05:32:47;1.90;99.90
21823;DHT22;11074;48.596;9.238;2023-03-01T05:35:16;1.90;99.90
21823;DHT22;11074;48.596;9.238;2023-03-01T05:37:45;1.90;99.90
21823;DHT22;11074;48.596;9.238;2023-03-01T05:40:17;1.90;99.90
21823;DHT22;11074;48.596;9.238;2023-03-01T05:42:45;1.90;99.90
21823;DHT22;11074;48.596;9.238;2023-03-01T05:45:23;1.90;99.90
21823;DHT22;11074;48.596;9.238;2023-03-01T05:47:51;1.90;99.90
21823;DHT22;11074;48.596;9.238;2023-03-01T05:50:29;1.90;99.90
21823;DHT22;11074;48.596;9.238;2023-03-01T05:55:32;1.90;99.90
21823;DHT22;11074;48.596;9.238;2023-03-01T05:58:00;1.90;99.90
21823;DHT22;11074;48.596;9.238;2023-03-01T06:00:27;1.90;99.90
21823;DHT22;11074;48.596;9.238;2023-03-01T06:02:55;1.90;99.90
21823;DHT22;11074;48.596;9.238;2023-03-01T06:05:23;1.90;99.90
21823;DHT22;11074;48.596;9.238;2023-03-01T06:07:49;1.90;99.90
21823;DHT22;11074;48.596;9.238;2023-03-01T06:10:17;1.90;99.90
21823;DHT22;11074;48.596;9.238;2023-03-01T06:12:43;1.80;99.90
21823;DHT22;11074;48.596;9.238;2023-03-01T06:15:13;1.90;99.90
21823;DHT22;11074;48.596;9.238;2023-03-01T06:17:42;1.90;99.90
21823;DHT22;11074;48.596;9.238;2023-03-01T06:22:39;2.10;99.90
21823;DHT22;11074;48.596;9.238;2023-03-01T06:25:06;2.10;99.90
21823;DHT22;11074;48.596;9.238;2023-03-01T06:27:33;2.10;99.90
21823;DHT22;11074;48.596;9.238;2023-03-01T06:29:58;2.10;99.90
21823;DHT22;11074;48.596;9.238;2023-03-01T06:32:24;2.00;99.90
21823;DHT22;11074;48.596;9.238;2023-03-01T06:34:50;2.00;99.90
21823;DHT22;11074;48.596;9.238;2023-03-01T06:37:16;2.00;99.90
21823;DHT22;11074;48.596;9.238;2023-03-01T06:39:41;2.00;99.90
21823;DHT22;11074;48.596;9.238;2023-03-01T06:42:08;2.00;99.90
21823;DHT22;11074;48.596;9.238;2023-03-01T06:44:35;2.00;99.90
21823;DHT22;11074;48.596;9.238;2023-03-01T06:47:02;1.90;99.90
21823;DHT22;11074;48.596;9.238;2023-03-01T06:49:28;1.90;99.90
21823;DHT22;11074;48.596;9.238;2023-03-01T06:51:54;1.90;99.90
21823;DHT22;11074;48.596;9.238;2023-03-01T06:54:20;1.90;99.90
21823;DHT22;11074;48.596;9.238;2023-03-01T06:56:48;1.90;99.90
21823;DHT22;11074;48.596;9.238;2023-03-01T06:59:15;1.90;99.90
21823;DHT22;11074;48.596;9.238;2023-03-01T07:01:41;1.90;99.90
21823;DHT22;11074;48.596;9.238;2023-03-01T07:04:07;1.90;99.90
21823;DHT22;11074;48.596;9.238;2023-03-01T07:06:33;2.00;99.90
21823;DHT22;11074;48.596;9.238;2023-03-01T07:08:58;2.00;99.90
21823;DHT22;11074;48.596;9.238;2023-03-01T07:11:24;2.00;99.90
21823;DHT22;11074;48.596;9.238;2023-03-01T07:13:50;2.00;99.90
21823;DHT22;11074;48.596;9.238;2023-03-01T07:16:15;2.10;99.90
21823;DHT22;11074;48.596;9.238;2023-03-01T07:18:42;2.10;99.90
21823;DHT22;11074;48.596;9.238;2023-03-01T07:21:08;2.00;99.90
21823;DHT22;11074;48.596;9.238;2023-03-01T07:23:36;2.10;99.90
21823;DHT22;11074;48.596;9.238;2023-03-01T07:26:02;2.10;99.90
21823;DHT22;11074;48.596;9.238;2023-03-01T07:28:28;2.10;99.90
21823;DHT22;11074;48.596;9.238;2023-03-01T07:30:54;2.20;99.90
21823;DHT22;11074;48.596;9.238;2023-03-01T07:33:20;2.20;99.90
21823;DHT22;11074;48.596;9.238;2023-03-01T07:35:46;2.20;99.90
21823;DHT22;11074;48.596;9.238;2023-03-01T07:38:11;2.20;99.90
21823;DHT22;11074;48.596;9.238;2023-03-01T07:40:37;2.30;99.90
21823;DHT22;11074;48.596;9.238;2023-03-01T07:43:02;2.30;99.90
21823;DHT22;11074;48.596;9.238;2023-03-01T07:45:28;2.30;99.90
21823;DHT22;11074;48.596;9.238;2023-03-01T07:47:55;2.30;99.90
21823;DHT22;11074;48.596;9.238;2023-03-01T07:50:21;2.30;99.90
21823;DHT22;11074;48.596;9.238;2023-03-01T07:52:49;2.30;99.90
21823;DHT22;11074;48.596;9.238;2023-03-01T07:55:16;2.40;99.90
21823;DHT22;11074;48.596;9.238;2023-03-01T07:57:42;2.40;99.90
21823;DHT22;11074;48.596;9.238;2023-03-01T08:00:10;2.40;99.90
21823;DHT22;11074;48.596;9.238;2023-03-01T08:02:37;2.50;99.90
21823;DHT22;11074;48.596;9.238;2023-03-01T08:05:04;2.50;99.90
21823;DHT22;11074;48.596;9.238;2023-03-01T08:07:30;2.40;99.90
21823;DHT22;11074;48.596;9.238;2023-03-01T08:09:55;2.40;99.90
21823;DHT22;11074;48.596;9.238;2023-03-01T08:12:21;2.40;99.90
21823;DHT22;11074;48.596;9.238;2023-03-01T08:14:47;2.40;99.90
21823;DHT22;11074;48.596;9.238;2023-03-01T08:17:15;2.50;99.90
21823;DHT22;11074;48.596;9.238;2023-03-01T08:19:42;2.50;99.90
21823;DHT22;11074;48.596;9.238;2023-03-01T08:22:08;2.60;99.90
21823;DHT22;11074;48.596;9.238;2023-03-01T08:24:34;2.60;99.90
21823;DHT22;11074;48.596;9.238;2023-03-01T08:26:59;2.60;99.90
21823;DHT22;11074;48.596;9.238;2023-03-01T08:29:26;2.70;99.90
21823;DHT22;11074;48.596;9.238;2023-03-01T08:31:51;2.80;99.90
21823;DHT22;11074;48.596;9.238;2023-03-01T08:34:18;2.90;99.90
21823;DHT22;11074;48.596;9.238;2023-03-01T08:36:45;2.90;99.90
21823;DHT22;11074;48.596;9.238;2023-03-01T08:39:16;3.00;99.90
21823;DHT22;11074;48.596;9.238;2023-03-01T08:41:43;3.10;99.90
21823;DHT22;11074;48.596;9.238;2023-03-01T08:44:11;3.10;99.90
21823;DHT22;11074;48.596;9.238;2023-03-01T08:46:40;3.20;99.90
21823;DHT22;11074;48.596;9.238;2023-03-01T08:49:13;3.20;99.90
21823;DHT22;11074;48.596;9.238;2023-03-01T08:51:41;3.30;99.90
21823;DHT22;11074;48.596;9.238;2023-03-01T08:54:18;3.30;99.90
21823;DHT22;11074;48.596;9.238;2023-03-01T08:56:45;3.30;99.90
21823;DHT22;11074;48.596;9.238;2023-03-01T08:59:13;3.30;99.90
21823;DHT22;11074;48.596;9.238;2023-03-01T09:01:40;3.30;99.90
21823;DHT22;11074;48.596;9.238;2023-03-01T09:04:09;3.30;99.90
21823;DHT22;11074;48.596;9.238;2023-03-01T09:06:35;3.40;99.90
21823;DHT22;11074;48.596;9.238;2023-03-01T09:09:02;3.50;99.90
21823;DHT22;11074;48.596;9.238;2023-03-01T09:11:29;3.60;99.90
21823;DHT22;11074;48.596;9.238;2023-03-01T09:13:55;3.60;99.90
21823;DHT22;11074;48.596;9.238;2023-03-01T09:16:22;3.70;99.90
21823;DHT22;11074;48.596;9.238;2023-03-01T09:18:53;3.80;99.90
21823;DHT22;11074;48.596;9.238;2023-03-01T09:21:22;3.80;99.90
21823;DHT22;11074;48.596;9.238;2023-03-01T09:23:49;3.70;99.90
21823;DHT22;11074;48.596;9.238;2023-03-01T09:26:20;3.80;99.90
21823;DHT22;11074;48.596;9.238;2023-03-01T09:28:51;3.80;99.90
21823;DHT22;11074;48.596;9.238;2023-03-01T09:31:23;3.90;99.90
21823;DHT22;11074;48.596;9.238;2023-03-01T09:33:51;3.90;99.90
21823;DHT22;11074;48.596;9.238;2023-03-01T09:36:20;3.90;99.90
21823;DHT22;11074;48.596;9.238;2023-03-01T09:38:48;4.00;99.90
21823;DHT22;11074;48.596;9.238;2023-03-01T09:43:49;4.00;99.90
21823;DHT22;11074;48.596;9.238;2023-03-01T09:46:22;4.00;99.90
21823;DHT22;11074;48.596;9.238;2023-03-01T09:48:54;4.30;99.90
21823;DHT22;11074;48.596;9.238;2023-03-01T09:51:30;4.00;99.90
21823;DHT22;11074;48.596;9.238;2023-03-01T09:53:58;4.40;99.90
21823;DHT22;11074;48.596;9.238;2023-03-01T09:56:30;5.60;99.90
21823;DHT22;11074;48.596;9.238;2023-03-01T09:59:02;6.30;99.90
21823;DHT22;11074;48.596;9.238;2023-03-01T10:04:50;6.50;99.90
21823;DHT22;11074;48.596;9.238;2023-03-01T10:07:28;6.40;99.90
21823;DHT22;11074;48.596;9.238;2023-03-01T10:10:34;6.60;99.90
21823;DHT22;11074;48.596;9.238;2023-03-01T10:13:10;6.30;99.90
21823;DHT22;11074;48.596;9.238;2023-03-01T10:16:11;5.40;99.90
21823;DHT22;11074;48.596;9.238;2023-03-01T10:18:39;5.40;99.90
21823;DHT22;11074;48.596;9.238;2023-03-01T10:21:18;6.10;99.90
21823;DHT22;11074;48.596;9.238;2023-03-01T10:23:45;6.50;99.90
21823;DHT22;11074;48.596;9.238;2023-03-01T10:29:11;5.00;99.90
21823;DHT22;11074;48.596;9.238;2023-03-01T10:31:47;6.10;99.90
21823;DHT22;11074;48.596;9.238;2023-03-01T10:37:01;6.80;99.90
21823;DHT22;11074;48.596;9.238;2023-03-01T10:40:04;6.90;99.90
21823;DHT22;11074;48.596;9.238;2023-03-01T10:42:48;7.60;99.90
21823;DHT22;11074;48.596;9.238;2023-03-01T10:48:06;7.80;99.90
21823;DHT22;11074;48.596;9.238;2023-03-01T10:50:46;7.80;99.90
21823;DHT22;11074;48.596;9.238;2023-03-01T10:53:26;7.30;99.90
21823;DHT22;11074;48.596;9.238;2023-03-01T10:56:03;6.80;99.90
21823;DHT22;11074;48.596;9.238;2023-03-01T10:58:36;6.40;99.90
21823;DHT22;11074;48.596;9.238;2023-03-01T11:01:06;6.30;99.90
21823;DHT22;11074;48.596;9.238;2023-03-01T11:04:11;6.10;99.90
21823;DHT22;11074;48.596;9.238;2023-03-01T11:06:40;6.00;99.90
21823;DHT22;11074;48.596;9.238;2023-03-01T11:09:21;6.00;99.90
21823;DHT22;11074;48.596;9.238;2023-03-01T11:11:56;6.00;99.90
21823;DHT22;11074;48.596;9.238;2023-03-01T11:14:27;6.00;99.90
21823;DHT22;11074;48.596;9.238;2023-03-01T11:19:38;6.10;99.90
21823;DHT22;11074;48.596;9.238;2023-03-01T11:22:13;6.20;99.90
21823;DHT22;11074;48.596;9.238;2023-03-01T11:24:47;6.20;99.90
21823;DHT22;11074;48.596;9.238;2023-03-01T11:27:25;6.30;99.90
21823;DHT22;11074;48.596;9.238;2023-03-01T11:30:03;6.40;99.90
21823;DHT22;11074;48.596;9.238;2023-03-01T11:35:35;6.70;99.90
21823;DHT22;11074;48.596;9.238;2023-03-01T11:38:23;6.90;99.90
21823;DHT22;11074;48.596;9.238;2023-03-01T11:41:05;7.10;99.90
21823;DHT22;11074;48.596;9.238;2023-03-01T11:46:42;7.40;99.90
21823;DHT22;11074;48.596;9.238;2023-03-01T11:55:53;7.90;99.90
21823;DHT22;11074;48.596;9.238;2023-03-01T11:59:00;8.00;99.90
21823;DHT22;11074;48.596;9.238;2023-03-01T12:01:47;8.10;99.90
21823;DHT22;11074;48.596;9.238;2023-03-01T12:07:59;8.50;99.90
21823;DHT22;11074;48.596;9.238;2023-03-01T12:10:47;8.70;99.90
21823;DHT22;11074;48.596;9.238;2023-03-01T12:13:51;8.90;99.90
21823;DHT22;11074;48.596;9.238;2023-03-01T12:22:02;9.00;99.90
21823;DHT22;11074;48.596;9.238;2023-03-01T12:28:31;9.40;99.90
21823;DHT22;11074;48.596;9.238;2023-03-01T12:34:25;9.60;99.90
21823;DHT22;11074;48.596;9.238;2023-03-01T12:37:25;9.80;99.90
21823;DHT22;11074;48.596;9.238;2023-03-01T12:43:13;9.90;99.90
21823;DHT22;11074;48.596;9.238;2023-03-01T12:51:34;10.30;99.90
21823;DHT22;11074;48.596;9.238;2023-03-01T12:54:07;10.30;99.90
21823;DHT22;11074;48.596;9.238;2023-03-01T12:56:41;10.40;99.90
21823;DHT22;11074;48.596;9.238;2023-03-01T12:59:17;10.50;99.90
21823;DHT22;11074;48.596;9.238;2023-03-01T13:02:08;10.70;99.90
21823;DHT22;11074;48.596;9.238;2023-03-01T13:05:37;10.80;99.90
21823;DHT22;11074;48.596;9.238;2023-03-01T13:08:41;10.90;99.90
21823;DHT22;11074;48.596;9.238;2023-03-01T13:11:21;11.00;99.90
21823;DHT22;11074;48.596;9.238;2023-03-01T13:13:48;10.90;99.90
21823;DHT22;11074;48.596;9.238;2023-03-01T13:19:16;11.00;99.90
21823;DHT22;11074;48.596;9.238;2023-03-01T13:21:54;11.10;99.90
21823;DHT22;11074;48.596;9.238;2023-03-01T13:24:27;11.10;99.90
21823;DHT22;11074;48.596;9.238;2023-03-01T13:29:50;11.40;99.90
21823;DHT22;11074;48.596;9.238;2023-03-01T13:37:42;11.50;99.90
21823;DHT22;11074;48.596;9.238;2023-03-01T13:42:55;11.50;99.90
21823;DHT22;11074;48.596;9.238;2023-03-01T13:45:39;11.60;99.90
21823;DHT22;11074;48.596;9.238;2023-03-01T13:48:28;11.80;99.90
21823;DHT22;11074;48.596;9.238;2023-03-01T13:51:03;12.00;99.90
21823;DHT22;11074;48.596;9.238;2023-03-01T13:53:37;12.00;99.90
21823;DHT22;11074;48.596;9.238;2023-03-01T13:56:20;12.00;99.90
21823;DHT22;11074;48.596;9.238;2023-03-01T14:01:40;12.20;99.90
21823;DHT22;11074;48.596;9.238;2023-03-01T14:04:29;12.40;99.90
21823;DHT22;11074;48.596;9.238;2023-03-01T14:07:29;12.50;99.90
21823;DHT22;11074;48.596;9.238;2023-03-01T14:09:58;12.60;99.90
21823;DHT22;11074;48.596;9.238;2023-03-01T14:18:03;12.30;99.90
21823;DHT22;11074;48.596;9.238;2023-03-01T14:20:40;12.70;99.90
21823;DHT22;11074;48.596;9.238;2023-03-01T14:23:28;13.00;99.90
21823;DHT22;11074;48.596;9.238;2023-03-01T14:25:56;13.50;99.90
21823;DHT22;11074;48.596;9.238;2023-03-01T14:28:28;14.20;99.90
21823;DHT22;11074;48.596;9.238;2023-03-01T14:31:00;14.90;99.90
21823;DHT22;11074;48.596;9.238;2023-03-01T14:33:34;15.30;99.90
21823;DHT22;11074;48.596;9.238;2023-03-01T14:36:11;15.90;99.90
21823;DHT22;11074;48.596;9.238;2023-03-01T14:38:46;16.50;99.90
21823;DHT22;11074;48.596;9.238;2023-03-01T14:41:15;16.40;99.90
21823;DHT22;11074;48.596;9.238;2023-03-01T14:43:50;16.00;99.90
21823;DHT22;11074;48.596;9.238;2023-03-01T14:46:29;15.60;99.90
21823;DHT22;11074;48.596;9.238;2023-03-01T14:51:42;16.00;99.90
21823;DHT22;11074;48.596;9.238;2023-03-01T14:54:21;16.20;99.90
21823;DHT22;11074;48.596;9.238;2023-03-01T14:56:51;16.10;99.90
21823;DHT22;11074;48.596;9.238;2023-03-01T14:59:22;15.80;99.90
21823;DHT22;11074;48.596;9.238;2023-03-01T15:01:50;15.60;99.90
21823;DHT22;11074;48.596;9.238;2023-03-01T15:04:19;16.00;99.90
21823;DHT22;11074;48.596;9.238;2023-03-01T15:06:50;16.70;99.90
21823;DHT22;11074;48.596;9.238;2023-03-01T15:09:19;17.00;99.90
21823;DHT22;11074;48.596;9.238;2023-03-01T15:11:45;17.20;99.90
21823;DHT22;11074;48.596;9.238;2023-03-01T15:14:39;17.40;99.90
21823;DHT22;11074;48.596;9.238;2023-03-01T15:20:00;16.90;99.80
21823;DHT22;11074;48.596;9.238;2023-03-01T15:22:29;16.30;99.90
21823;DHT22;11074;48.596;9.238;2023-03-01T15:24:55;15.70;99.90
21823;DHT22;11074;48.596;9.238;2023-03-01T15:27:24;15.90;99.90
21823;DHT22;11074;48.596;9.238;2023-03-01T15:29:55;15.90;99.90
21823;DHT22;11074;48.596;9.238;2023-03-01T15:34:57;15.20;99.90
21823;DHT22;11074;48.596;9.238;2023-03-01T15:42:44;13.90;99.90
21823;DHT22;11074;48.596;9.238;2023-03-01T15:47:48;13.30;99.90
21823;DHT22;11074;48.596;9.238;2023-03-01T15:50:35;13.00;99.90
21823;DHT22;11074;48.596;9.238;2023-03-01T15:53:08;12.20;99.90
21823;DHT22;11074;48.596;9.238;2023-03-01T15:55:37;11.50;99.90
21823;DHT22;11074;48.596;9.238;2023-03-01T15:58:15;11.10;99.90
21823;DHT22;11074;48.596;9.238;2023-03-01T16:00:44;10.70;99.90
21823;DHT22;11074;48.596;9.238;2023-03-01T16:03:12;10.50;99.90
21823;DHT22;11074;48.596;9.238;2023-03-01T16:05:38;10.40;99.90
21823;DHT22;11074;48.596;9.238;2023-03-01T16:08:05;10.30;99.90
21823;DHT22;11074;48.596;9.238;2023-03-01T16:10:32;10.00;99.90
21823;DHT22;11074;48.596;9.238;2023-03-01T16:12:59;9.80;99.90
21823;DHT22;11074;48.596;9.238;2023-03-01T16:15:31;9.60;99.90
21823;DHT22;11074;48.596;9.238;2023-03-01T16:18:00;9.50;99.90
21823;DHT22;11074;48.596;9.238;2023-03-01T16:20:27;9.40;99.90
21823;DHT22;11074;48.596;9.238;2023-03-01T16:22:53;9.30;99.90
21823;DHT22;11074;48.596;9.238;2023-03-01T16:25:20;9.20;99.90
21823;DHT22;11074;48.596;9.238;2023-03-01T16:27:49;9.20;99.90
21823;DHT22;11074;48.596;9.238;2023-03-01T16:30:18;9.10;99.90
21823;DHT22;11074;48.596;9.238;2023-03-01T16:32:47;9.00;99.90
21823;DHT22;11074;48.596;9.238;2023-03-01T16:35:16;8.90;99.90
21823;DHT22;11074;48.596;9.238;2023-03-01T16:37:45;8.80;99.90
21823;DHT22;11074;48.596;9.238;2023-03-01T16:40:18;8.80;99.90
21823;DHT22;11074;48.596;9.238;2023-03-01T16:42:49;8.70;99.90
21823;DHT22;11074;48.596;9.238;2023-03-01T16:45:16;8.60;99.90
21823;DHT22;11074;48.596;9.238;2023-03-01T16:47:43;8.50;99.90
21823;DHT22;11074;48.596;9.238;2023-03-01T16:50:09;8.40;99.90
21823;DHT22;11074;48.596;9.238;2023-03-01T16:52:36;8.40;99.90
21823;DHT22;11074;48.596;9.238;2023-03-01T16:55:04;8.30;99.90
21823;DHT22;11074;48.596;9.238;2023-03-01T16:57:36;8.20;99.90
21823;DHT22;11074;48.596;9.238;2023-03-01T17:00:07;8.10;99.90
21823;DHT22;11074;48.596;9.238;2023-03-01T17:02:38;8.10;99.90
21823;DHT22;11074;48.596;9.238;2023-03-01T17:05:07;7.90;99.90
21823;DHT22;11074;48.596;9.238;2023-03-01T17:07:35;7.90;99.90
21823;DHT22;11074;48.596;9.238;2023-03-01T17:10:03;7.80;99.90
21823;DHT22;11074;48.596;9.238;2023-03-01T17:12:31;7.70;99.90
21823;DHT22;11074;48.596;9.238;2023-03-01T17:14:57;7.60;99.90
21823;DHT22;11074;48.596;9.238;2023-03-01T17:17:23;7.60;99.90
21823;DHT22;11074;48.596;9.238;2023-03-01T17:19:49;7.60;99.90
21823;DHT22;11074;48.596;9.238;2023-03-01T17:22:15;7.50;99.90
21823;DHT22;11074;48.596;9.238;2023-03-01T17:24:43;7.40;99.90
21823;DHT22;11074;48.596;9.238;2023-03-01T17:27:09;7.30;99.90
21823;DHT22;11074;48.596;9.238;2023-03-01T17:29:37;7.20;99.90
21823;DHT22;11074;48.596;9.238;2023-03-01T17:32:05;7.10;99.90
21823;DHT22;11074;48.596;9.238;2023-03-01T17:34:32;7.10;99.90
21823;DHT22;11074;48.596;9.238;2023-03-01T17:36:58;7.10;99.90
21823;DHT22;11074;48.596;9.238;2023-03-01T17:39:24;7.00;99.90
21823;DHT22;11074;48.596;9.238;2023-03-01T17:41:53;6.90;99.90
21823;DHT22;11074;48.596;9.238;2023-03-01T17:44:20;6.80;99.90
21823;DHT22;11074;48.596;9.238;2023-03-01T17:46:45;6.80;99.90
21823;DHT22;11074;48.596;9.238;2023-03-01T17:49:11;6.70;99.90
21823;DHT22;11074;48.596;9.238;2023-03-01T17:51:37;6.70;99.90
21823;DHT22;11074;48.596;9.238;2023-03-01T17:54:03;6.70;99.90
21823;DHT22;11074;48.596;9.238;2023-03-01T17:56:29;6.70;99.90
21823;DHT22;11074;48.596;9.238;2023-03-01T17:58:56;6.70;99.90
21823;DHT22;11074;48.596;9.238;2023-03-01T18:01:22;6.70;99.90
21823;DHT22;11074;48.596;9.238;2023-03-01T18:03:53;6.70;99.90